createdAt,value
2023-11-04T00:00:01.211Z,91.71
2023-11-04T00:00:46.446Z,91.76
2023-11-04T00:01:58.156Z,92.31
2023-11-04T00:02:32.288Z,92.37
2023-11-04T00:03:06.214Z,92.47
2023-11-04T00:03:41.186Z,92.45
2023-11-04T00:04:15.321Z,92.47
2023-11-04T00:04:50.473Z,92.38
2023-11-04T00:05:40.082Z,92.53
2023-11-04T00:06:15.469Z,92.73
2023-11-04T00:06:50.424Z,92.09
2023-11-04T00:07:27.725Z,91.74
2023-11-04T00:08:01.460Z,91.46
2023-11-04T00:08:35.228Z,90.88
2023-11-04T00:09:28.539Z,91.02
2023-11-04T00:10:09.874Z,91.40
2023-11-04T00:10:44.404Z,91.03
2023-11-04T00:11:19.616Z,91.19
2023-11-04T00:11:53.584Z,90.90
2023-11-04T00:13:05.660Z,90.83
2023-11-04T00:13:39.978Z,90.86
2023-11-04T00:14:15.635Z,90.82
2023-11-04T00:14:49.149Z,91.02
2023-11-04T00:15:25.133Z,91.38
2023-11-04T00:15:59.753Z,91.72
2023-11-04T00:16:49.002Z,91.79
2023-11-04T00:17:22.700Z,91.61
2023-11-04T00:17:56.419Z,91.42
2023-11-04T00:18:32.888Z,91.19
2023-11-04T00:19:07.565Z,91.21
2023-11-04T00:19:41.384Z,90.97
2023-11-04T00:20:36.601Z,90.76
2023-11-04T00:21:17.668Z,91.03
2023-11-04T00:21:51.897Z,90.84
2023-11-04T00:22:25.941Z,90.76
2023-11-04T00:22:59.765Z,91.06
2023-11-04T00:24:12.919Z,90.89
2023-11-04T00:24:49.259Z,91.07
2023-11-04T00:25:23.011Z,90.78
2023-11-04T00:25:57.000Z,90.64
2023-11-04T00:26:30.846Z,90.53
2023-11-04T00:27:06.510Z,90.54
2023-11-04T00:27:49.880Z,90.59
2023-11-04T00:28:23.418Z,90.71
2023-11-04T00:28:56.911Z,90.45
2023-11-04T00:29:31.177Z,90.77
2023-11-04T00:30:05.923Z,91.07
2023-11-04T00:30:39.837Z,91.08
2023-11-04T00:31:31.087Z,91.20
2023-11-04T00:32:05.195Z,91.55
2023-11-04T00:32:39.107Z,91.20
2023-11-04T00:33:13.494Z,90.38
2023-11-04T00:33:47.537Z,90.59
2023-11-04T00:34:21.115Z,90.95
2023-11-04T00:35:12.396Z,90.81
2023-11-04T00:35:46.409Z,90.86
2023-11-04T00:36:20.388Z,90.61
2023-11-04T00:36:54.148Z,90.41
2023-11-04T00:37:28.486Z,90.17
2023-11-04T00:38:02.534Z,90.16
2023-11-04T00:38:53.547Z,90.06
2023-11-04T00:39:27.338Z,89.94
2023-11-04T00:40:07.753Z,89.90
2023-11-04T00:40:43.630Z,89.99
2023-11-04T00:41:21.477Z,89.77
2023-11-04T00:41:55.531Z,90.00
2023-11-04T00:42:39.383Z,90.05
2023-11-04T00:43:13.785Z,90.17
2023-11-04T00:43:48.118Z,90.21
2023-11-04T00:44:22.291Z,89.80
2023-11-04T00:44:56.988Z,90.10
2023-11-04T00:45:30.623Z,90.33
2023-11-04T00:46:18.463Z,90.15
2023-11-04T00:46:52.697Z,90.33
2023-11-04T00:47:26.469Z,90.37
2023-11-04T00:48:01.189Z,90.29
2023-11-04T00:48:36.816Z,89.90
2023-11-04T00:49:11.831Z,89.73
2023-11-04T00:50:01.884Z,89.64
2023-11-04T00:50:38.806Z,89.86
2023-11-04T00:51:13.225Z,89.91
2023-11-04T00:51:47.840Z,89.58
2023-11-04T00:52:25.083Z,89.85
2023-11-04T00:53:34.401Z,90.18
2023-11-04T00:54:09.069Z,90.17
2023-11-04T00:54:43.189Z,90.44
2023-11-04T00:55:18.881Z,90.27
2023-11-04T00:55:53.193Z,90.02
2023-11-04T00:56:26.965Z,89.52
2023-11-04T00:57:16.455Z,89.23
2023-11-04T00:57:50.648Z,89.19
2023-11-04T00:58:24.527Z,89.27
2023-11-04T00:58:58.630Z,89.71
2023-11-04T00:59:32.419Z,89.40
2023-11-04T01:00:10.729Z,89.50
2023-11-04T01:00:57.916Z,89.54
2023-11-04T01:01:31.552Z,90.05
2023-11-04T01:02:05.420Z,90.34
2023-11-04T01:02:38.973Z,90.39
2023-11-04T01:03:12.834Z,90.39
2023-11-04T01:03:46.976Z,90.46
2023-11-04T01:04:38.620Z,91.02
2023-11-04T01:05:12.707Z,89.92
2023-11-04T01:05:49.065Z,89.73
2023-11-04T01:06:23.180Z,90.29
2023-11-04T01:06:57.492Z,90.44
2023-11-04T01:07:32.075Z,90.09
2023-11-04T01:08:19.815Z,89.88
2023-11-04T01:08:53.569Z,90.16
2023-11-04T01:09:27.449Z,90.12
2023-11-04T01:10:01.406Z,90.48
2023-11-04T01:10:35.767Z,90.18
2023-11-04T01:11:09.878Z,90.04
2023-11-04T01:12:00.899Z,90.19
2023-11-04T01:12:34.788Z,90.25
2023-11-04T01:13:09.359Z,90.62
2023-11-04T01:13:43.593Z,91.08
2023-11-04T01:14:20.646Z,91.20
2023-11-04T01:14:54.986Z,91.30
2023-11-04T01:15:42.153Z,91.36
2023-11-04T01:16:16.589Z,91.34
2023-11-04T01:16:52.946Z,91.01
2023-11-04T01:17:26.819Z,91.33
2023-11-04T01:18:02.272Z,91.70
2023-11-04T01:18:35.979Z,91.39
2023-11-04T01:19:24.108Z,91.80
2023-11-04T01:19:57.902Z,91.61
2023-11-04T01:20:31.721Z,91.47
2023-11-04T01:21:07.607Z,91.29
2023-11-04T01:21:41.528Z,91.47
2023-11-04T01:22:16.882Z,91.60
2023-11-04T01:23:05.448Z,91.56
2023-11-04T01:23:39.358Z,91.68
2023-11-04T01:24:13.054Z,91.44
2023-11-04T01:24:47.532Z,91.37
2023-11-04T01:25:21.324Z,91.84
2023-11-04T01:25:55.434Z,91.91
2023-11-04T01:26:46.556Z,91.96
2023-11-04T01:27:20.758Z,92.06
2023-11-04T01:27:55.219Z,91.36
2023-11-04T01:28:29.171Z,91.05
2023-11-04T01:29:02.944Z,91.20
2023-11-04T01:29:37.213Z,91.08
2023-11-04T01:30:28.085Z,91.12
2023-11-04T01:31:03.126Z,90.52
2023-11-04T01:31:36.836Z,90.15
2023-11-04T01:32:12.632Z,90.06
2023-11-04T01:32:47.271Z,90.34
2023-11-04T01:33:21.382Z,90.29
2023-11-04T01:34:12.483Z,90.74
2023-11-04T01:34:46.869Z,90.69
2023-11-04T01:35:20.843Z,90.49
2023-11-04T01:35:54.800Z,90.51
2023-11-04T01:36:28.835Z,90.64
2023-11-04T01:37:03.270Z,90.18
2023-11-04T01:37:49.985Z,90.55
2023-11-04T01:38:23.704Z,90.42
2023-11-04T01:39:00.329Z,90.95
2023-11-04T01:39:35.231Z,90.90
2023-11-04T01:40:12.939Z,91.06
2023-11-04T01:40:53.427Z,90.91
2023-11-04T01:41:36.510Z,90.77
2023-11-04T01:42:10.473Z,90.78
2023-11-04T01:42:48.239Z,90.86
2023-11-04T01:43:40.883Z,91.25
2023-11-04T01:44:15.044Z,91.39
2023-11-04T01:44:48.922Z,90.84
2023-11-04T01:45:35.922Z,90.73
2023-11-04T01:46:10.766Z,90.44
2023-11-04T01:46:45.255Z,90.33
2023-11-04T01:47:19.257Z,90.26
2023-11-04T01:47:54.288Z,90.50
2023-11-04T01:48:29.550Z,90.61
2023-11-04T01:49:18.625Z,90.61
2023-11-04T01:49:52.757Z,91.20
2023-11-04T01:50:26.800Z,91.68
2023-11-04T01:51:00.636Z,91.41
2023-11-04T01:51:34.373Z,91.32
2023-11-04T01:52:08.618Z,90.88
2023-11-04T01:52:55.837Z,90.71
2023-11-04T01:53:30.253Z,90.74
2023-11-04T01:54:05.413Z,91.14
2023-11-04T01:54:39.826Z,91.49
2023-11-04T01:55:15.235Z,91.67
2023-11-04T01:55:49.296Z,91.70
2023-11-04T01:56:40.845Z,92.07
2023-11-04T01:57:15.068Z,92.32
2023-11-04T01:57:50.389Z,92.37
2023-11-04T01:58:24.422Z,92.14
2023-11-04T01:58:59.611Z,91.79
2023-11-04T01:59:34.455Z,91.26
2023-11-04T02:00:21.992Z,91.23
2023-11-04T02:00:57.255Z,91.96
2023-11-04T02:01:32.563Z,92.06
2023-11-04T02:02:08.925Z,92.03
2023-11-04T02:02:45.321Z,92.03
2023-11-04T02:03:19.799Z,92.26
2023-11-04T02:04:04.733Z,91.66
2023-11-04T02:04:39.109Z,91.37
2023-11-04T02:05:13.953Z,91.58
2023-11-04T02:05:48.000Z,91.59
2023-11-04T02:06:22.453Z,91.76
2023-11-04T02:06:56.627Z,91.90
2023-11-04T02:07:41.821Z,91.90
2023-11-04T02:08:16.424Z,92.02
2023-11-04T02:08:50.554Z,91.91
2023-11-04T02:09:26.689Z,91.77
2023-11-04T02:10:01.168Z,91.85
2023-11-04T02:10:35.903Z,91.88
2023-11-04T02:11:23.917Z,91.93
2023-11-04T02:11:57.933Z,92.11
2023-11-04T02:12:32.748Z,92.06
2023-11-04T02:13:07.292Z,91.95
2023-11-04T02:13:42.263Z,91.94
2023-11-04T02:14:15.836Z,92.05
2023-11-04T02:15:05.832Z,91.81
2023-11-04T02:15:39.943Z,92.07
2023-11-04T02:16:14.115Z,91.87
2023-11-04T02:16:49.662Z,92.04
2023-11-04T02:17:24.976Z,91.79
2023-11-04T02:17:58.932Z,91.79
2023-11-04T02:18:51.484Z,91.54
2023-11-04T02:19:26.054Z,91.78
2023-11-04T02:20:06.224Z,91.73
2023-11-04T02:20:43.752Z,92.03
2023-11-04T02:21:18.353Z,92.08
2023-11-04T02:22:47.256Z,92.42
2023-11-04T02:23:21.095Z,92.17
2023-11-04T02:23:54.947Z,91.55
2023-11-04T02:24:28.952Z,91.12
2023-11-04T02:25:03.158Z,91.48
2023-11-04T02:26:07.002Z,91.28
2023-11-04T02:26:42.289Z,91.36
2023-11-04T02:27:16.487Z,91.37
2023-11-04T02:27:51.013Z,91.55
2023-11-04T02:28:25.436Z,91.65
2023-11-04T02:29:00.738Z,91.30
2023-11-04T02:29:50.305Z,91.71
2023-11-04T02:30:24.707Z,92.05
2023-11-04T02:30:59.913Z,91.88
2023-11-04T02:31:35.433Z,92.08
2023-11-04T02:32:09.266Z,92.22
2023-11-04T02:33:22.800Z,92.50
2023-11-04T02:33:58.498Z,92.65
2023-11-04T02:34:34.620Z,92.79
2023-11-04T02:35:08.619Z,92.67
2023-11-04T02:35:42.404Z,92.64
2023-11-04T02:36:16.116Z,93.07
2023-11-04T02:37:08.664Z,92.97
2023-11-04T02:37:44.862Z,93.06
2023-11-04T02:38:19.946Z,92.81
2023-11-04T02:38:57.310Z,92.22
2023-11-04T02:39:31.288Z,92.28
2023-11-04T02:40:06.941Z,91.74
2023-11-04T02:40:50.158Z,91.53
2023-11-04T02:41:24.769Z,92.01
2023-11-04T02:41:58.569Z,91.89
2023-11-04T02:42:32.268Z,91.48
2023-11-04T02:43:05.929Z,91.33
2023-11-04T02:43:40.130Z,91.69
2023-11-04T02:44:28.527Z,91.61
2023-11-04T02:45:02.233Z,92.15
2023-11-04T02:45:36.607Z,91.37
2023-11-04T02:46:11.223Z,90.65
2023-11-04T02:46:45.266Z,90.88
2023-11-04T02:47:19.061Z,90.81
2023-11-04T02:48:09.476Z,90.63
2023-11-04T02:48:43.936Z,91.44
2023-11-04T02:49:17.786Z,91.89
2023-11-04T02:49:52.612Z,91.88
2023-11-04T02:50:27.267Z,92.01
2023-11-04T02:51:05.265Z,92.17
2023-11-04T02:52:03.621Z,92.20
2023-11-04T02:52:43.516Z,92.48
2023-11-04T02:53:17.580Z,92.73
2023-11-04T02:53:52.495Z,91.88
2023-11-04T02:54:26.809Z,92.08
2023-11-04T02:55:29.236Z,91.56
2023-11-04T02:56:04.074Z,91.84
2023-11-04T02:56:38.299Z,91.91
2023-11-04T02:57:13.529Z,91.95
2023-11-04T02:57:49.119Z,92.40
2023-11-04T02:58:22.776Z,92.32
2023-11-04T02:59:08.831Z,92.06
2023-11-04T02:59:42.987Z,92.12
2023-11-04T03:03:32.105Z,92.41
2023-11-04T03:04:09.846Z,91.80
2023-11-04T03:04:44.344Z,91.73
2023-11-04T03:05:27.555Z,91.57
2023-11-04T03:06:07.251Z,91.56
2023-11-04T03:07:18.940Z,91.25
2023-11-04T03:07:53.305Z,91.58
2023-11-04T03:08:30.863Z,92.02
2023-11-04T03:09:05.205Z,92.47
2023-11-04T03:09:40.256Z,92.81
2023-11-04T03:10:14.313Z,92.53
2023-11-04T03:10:56.296Z,92.60
2023-11-04T03:11:30.614Z,92.98
2023-11-04T03:12:05.158Z,92.76
2023-11-04T03:12:39.303Z,91.83
2023-11-04T03:13:18.358Z,91.77
2023-11-04T03:13:52.998Z,92.04
2023-11-04T03:14:44.330Z,91.63
2023-11-04T03:15:18.289Z,91.91
2023-11-04T03:15:52.433Z,91.51
2023-11-04T03:16:25.971Z,91.53
2023-11-04T03:17:02.807Z,91.09
2023-11-04T03:18:16.254Z,90.46
2023-11-04T03:18:50.481Z,90.60
2023-11-04T03:19:25.113Z,90.39
2023-11-04T03:19:59.295Z,90.31
2023-11-04T03:20:38.345Z,90.01
2023-11-04T03:21:15.426Z,89.99
2023-11-04T03:22:00.148Z,90.10
2023-11-04T03:22:34.414Z,90.52
2023-11-04T03:23:08.542Z,90.61
2023-11-04T03:23:43.421Z,90.18
2023-11-04T03:24:18.051Z,89.79
2023-11-04T03:24:52.266Z,89.67
2023-11-04T03:25:39.353Z,90.25
2023-11-04T03:26:14.648Z,90.88
2023-11-04T03:26:50.152Z,90.95
2023-11-04T03:27:25.365Z,90.85
2023-11-04T03:27:59.834Z,90.57
2023-11-04T03:28:34.993Z,90.70
2023-11-04T03:29:21.932Z,90.57
2023-11-04T03:29:56.468Z,90.57
2023-11-04T03:30:32.314Z,90.70
2023-11-04T03:31:06.464Z,90.86
2023-11-04T03:31:40.200Z,90.84
2023-11-04T03:32:14.064Z,91.15
2023-11-04T03:33:00.189Z,91.22
2023-11-04T03:33:36.512Z,91.48
2023-11-04T03:34:10.919Z,91.39
2023-11-04T03:34:47.396Z,91.25
2023-11-04T03:35:23.625Z,90.70
2023-11-04T03:35:57.613Z,90.59
2023-11-04T03:36:46.914Z,90.41
2023-11-04T03:37:21.231Z,90.62
2023-11-04T03:37:55.392Z,90.55
2023-11-04T03:38:29.674Z,90.57
2023-11-04T03:39:03.398Z,90.87
2023-11-04T03:39:38.053Z,90.75
2023-11-04T03:40:25.005Z,90.69
2023-11-04T03:41:01.759Z,90.73
2023-11-04T03:41:37.691Z,90.34
2023-11-04T03:42:12.376Z,90.41
2023-11-04T03:42:46.760Z,90.74
2023-11-04T03:43:27.596Z,90.31
2023-11-04T03:44:19.471Z,89.84
2023-11-04T03:44:53.303Z,89.71
2023-11-04T03:45:28.823Z,89.60
2023-11-04T03:46:04.534Z,89.85
2023-11-04T03:46:39.107Z,89.86
2023-11-04T03:47:12.949Z,89.63
2023-11-04T03:47:56.819Z,89.77
2023-11-04T03:48:31.073Z,89.96
2023-11-04T03:49:06.649Z,89.55
2023-11-04T03:49:40.762Z,89.83
2023-11-04T03:50:15.388Z,90.00
2023-11-04T03:50:48.884Z,89.79
2023-11-04T03:51:35.861Z,89.26
2023-11-04T03:52:11.807Z,89.78
2023-11-04T03:52:45.715Z,89.94
2023-11-04T03:53:19.252Z,90.00
2023-11-04T03:53:56.104Z,90.07
2023-11-04T03:54:32.981Z,90.19
2023-11-04T03:55:20.616Z,90.11
2023-11-04T03:55:55.150Z,89.90
2023-11-04T03:56:29.533Z,90.04
2023-11-04T03:57:11.821Z,89.91
2023-11-04T03:57:45.976Z,89.81
2023-11-04T03:58:24.094Z,90.14
2023-11-04T03:59:12.649Z,90.29
2023-11-04T03:59:46.317Z,90.54
2023-11-04T04:00:21.096Z,90.31
2023-11-04T04:00:55.046Z,90.07
2023-11-04T04:01:29.477Z,89.72
2023-11-04T04:02:04.898Z,89.72
2023-11-04T04:02:47.137Z,89.73
2023-11-04T04:03:21.037Z,89.68
2023-11-04T04:03:55.349Z,89.68
2023-11-04T04:04:31.854Z,89.57
2023-11-04T04:05:07.025Z,89.79
2023-11-04T04:05:41.789Z,89.76
2023-11-04T04:06:32.043Z,89.87
2023-11-04T04:07:06.738Z,89.89
2023-11-04T04:07:41.257Z,89.51
2023-11-04T04:08:19.846Z,89.39
2023-11-04T04:08:54.102Z,89.23
2023-11-04T04:10:08.639Z,88.71
2023-11-04T04:10:42.960Z,88.80
2023-11-04T04:11:22.064Z,88.79
2023-11-04T04:11:58.892Z,88.88
2023-11-04T04:12:32.908Z,88.90
2023-11-04T04:13:42.464Z,89.15
2023-11-04T04:14:16.419Z,89.07
2023-11-04T04:14:50.233Z,88.93
2023-11-04T04:15:24.121Z,88.80
2023-11-04T04:15:59.231Z,88.64
2023-11-04T04:16:33.369Z,88.65
2023-11-04T04:17:23.513Z,88.70
2023-11-04T04:17:57.733Z,88.56
2023-11-04T04:18:31.521Z,88.64
2023-11-04T04:19:06.635Z,88.55
2023-11-04T04:19:43.566Z,88.63
2023-11-04T04:20:23.761Z,88.73
2023-11-04T04:21:08.133Z,89.15
2023-11-04T04:21:45.118Z,89.14
2023-11-04T04:22:21.172Z,89.31
2023-11-04T04:22:55.474Z,89.21
2023-11-04T04:23:29.598Z,89.45
2023-11-04T04:24:03.117Z,89.19
2023-11-04T04:24:44.896Z,88.92
2023-11-04T04:25:19.595Z,89.02
2023-11-04T04:25:59.065Z,88.96
2023-11-04T04:26:34.197Z,89.21
2023-11-04T04:27:08.241Z,89.15
2023-11-04T04:27:42.746Z,89.05
2023-11-04T04:28:29.710Z,89.11
2023-11-04T04:29:04.829Z,89.10
2023-11-04T04:29:39.379Z,89.22
2023-11-04T04:30:13.660Z,89.07
2023-11-04T04:30:47.501Z,89.37
2023-11-04T04:31:21.485Z,89.30
2023-11-04T04:32:08.569Z,89.72
2023-11-04T04:32:43.424Z,90.13
2023-11-04T04:33:18.855Z,90.30
2023-11-04T04:33:52.880Z,90.25
2023-11-04T04:34:26.749Z,89.94
2023-11-04T04:35:01.772Z,90.04
2023-11-04T04:35:49.528Z,90.16
2023-11-04T04:36:25.507Z,90.30
2023-11-04T04:37:00.283Z,90.33
2023-11-04T04:37:42.946Z,90.25
2023-11-04T04:38:16.707Z,90.44
2023-11-04T04:38:52.335Z,90.12
2023-11-04T04:39:41.546Z,90.01
2023-11-04T04:40:15.666Z,90.28
2023-11-04T04:40:49.681Z,90.52
2023-11-04T04:41:25.504Z,90.49
2023-11-04T04:42:01.660Z,90.33
2023-11-04T04:42:38.428Z,90.37
2023-11-04T04:43:21.697Z,90.56
2023-11-04T04:43:57.984Z,90.68
2023-11-04T04:44:34.894Z,90.40
2023-11-04T04:45:09.725Z,90.56
2023-11-04T04:45:46.609Z,90.65
2023-11-04T04:46:20.417Z,90.89
2023-11-04T04:47:03.777Z,90.80
2023-11-04T04:47:41.596Z,90.95
2023-11-04T04:48:17.795Z,90.87
2023-11-04T04:48:54.406Z,90.99
2023-11-04T04:49:32.216Z,91.15
2023-11-04T04:50:06.673Z,91.20
2023-11-04T05:01:22.794Z,89.42
2023-11-04T05:01:58.797Z,89.33
2023-11-04T05:02:38.410Z,89.37
2023-11-04T05:03:15.845Z,89.74
2023-11-04T05:04:03.386Z,90.00
2023-11-04T05:04:37.352Z,90.10
2023-11-04T05:05:14.410Z,90.29
2023-11-04T05:05:48.418Z,90.35
2023-11-04T05:06:23.461Z,90.59
2023-11-04T05:06:59.598Z,90.75
2023-11-04T05:07:48.894Z,90.68
2023-11-04T05:08:36.419Z,90.58
2023-11-04T05:09:12.651Z,90.43
2023-11-04T05:09:46.501Z,90.46
2023-11-04T05:10:20.543Z,90.55
2023-11-04T05:11:34.406Z,90.56
2023-11-04T05:12:08.432Z,90.76
2023-11-04T05:12:42.719Z,90.99
2023-11-04T05:13:16.649Z,90.93
2023-11-04T05:13:51.468Z,90.86
2023-11-04T05:14:25.455Z,90.76
2023-11-04T05:15:11.401Z,90.76
2023-11-04T05:15:47.692Z,91.01
2023-11-04T05:16:23.185Z,90.94
2023-11-04T05:16:56.894Z,91.00
2023-11-04T05:17:31.673Z,91.09
2023-11-04T05:18:06.006Z,91.54
2023-11-04T05:18:55.257Z,91.53
2023-11-04T05:19:30.644Z,91.42
2023-11-04T05:20:08.515Z,91.11
2023-11-04T05:20:43.259Z,90.84
2023-11-04T05:21:19.960Z,90.79
2023-11-04T05:21:54.184Z,91.10
2023-11-04T05:22:36.931Z,91.46
2023-11-04T05:23:12.369Z,91.58
2023-11-04T05:23:47.510Z,91.52
2023-11-04T05:24:22.235Z,91.18
2023-11-04T05:24:56.727Z,91.23
2023-11-04T05:25:38.281Z,91.53
2023-11-04T05:26:23.551Z,91.42
2023-11-04T05:26:58.090Z,91.55
2023-11-04T05:27:35.429Z,91.59
2023-11-04T05:28:09.728Z,91.69
2023-11-04T05:28:43.678Z,91.35
2023-11-04T05:29:17.781Z,91.57
2023-11-04T05:30:03.088Z,91.67
2023-11-04T05:30:37.640Z,91.71
2023-11-04T05:31:12.678Z,91.52
2023-11-04T05:31:48.167Z,91.52
2023-11-04T05:32:24.962Z,91.51
2023-11-04T05:33:00.803Z,91.46
2023-11-04T05:33:50.788Z,91.64
2023-11-04T05:34:24.503Z,91.80
2023-11-04T05:34:58.447Z,91.70
2023-11-04T05:35:33.174Z,91.46
2023-11-04T05:36:12.713Z,91.56
2023-11-04T05:36:53.246Z,91.59
2023-11-04T05:37:36.931Z,91.54
2023-11-04T05:38:11.441Z,91.33
2023-11-04T05:38:47.323Z,91.16
2023-11-04T05:39:21.115Z,90.90
2023-11-04T05:39:55.109Z,91.08
2023-11-04T05:40:30.281Z,91.19
2023-11-04T05:41:16.119Z,91.36
2023-11-04T05:41:50.277Z,91.52
2023-11-04T05:42:26.668Z,91.55
2023-11-04T05:43:01.022Z,91.33
2023-11-04T05:43:37.105Z,91.39
2023-11-04T05:44:11.075Z,91.65
2023-11-04T05:44:59.775Z,91.70
2023-11-04T05:45:48.458Z,92.05
2023-11-04T05:46:22.258Z,92.13
2023-11-04T05:46:58.822Z,91.92
2023-11-04T05:47:35.931Z,91.91
2023-11-04T05:48:45.258Z,91.86
2023-11-04T05:49:19.347Z,91.91
2023-11-04T05:49:54.336Z,91.86
2023-11-04T05:50:29.100Z,91.96
2023-11-04T05:51:02.948Z,92.13
2023-11-04T05:51:37.997Z,92.51
2023-11-04T05:52:27.942Z,92.20
2023-11-04T05:53:01.708Z,92.21
2023-11-04T05:53:35.789Z,92.24
2023-11-04T05:54:14.755Z,92.17
2023-11-04T05:54:49.392Z,92.60
2023-11-04T05:55:24.702Z,92.52
2023-11-04T05:56:08.910Z,92.58
2023-11-04T05:56:43.156Z,92.85
2023-11-04T05:57:17.210Z,92.91
2023-11-04T05:57:51.555Z,93.00
2023-11-04T05:58:25.480Z,92.81
2023-11-04T05:58:59.969Z,92.80
2023-11-04T05:59:54.505Z,92.41
2023-11-04T06:00:32.170Z,92.59
2023-11-04T06:01:08.245Z,92.45
2023-11-04T06:01:43.344Z,92.18
2023-11-04T06:02:17.370Z,91.86
2023-11-04T06:03:31.272Z,91.04
2023-11-04T06:04:11.008Z,90.91
2023-11-04T06:04:46.525Z,91.04
2023-11-04T06:05:20.619Z,90.91
2023-11-04T06:05:54.623Z,90.40
2023-11-04T06:07:06.167Z,90.14
2023-11-04T06:07:40.841Z,90.23
2023-11-04T06:08:17.759Z,90.26
2023-11-04T06:08:52.432Z,90.29
2023-11-04T06:09:29.757Z,90.11
2023-11-04T06:10:12.333Z,90.00
2023-11-04T06:11:00.877Z,90.17
2023-11-04T06:11:40.385Z,90.37
2023-11-04T06:12:16.505Z,90.40
2023-11-04T06:12:50.359Z,90.31
2023-11-04T06:13:27.419Z,90.18
2023-11-04T06:14:36.399Z,90.50
2023-11-04T06:15:13.060Z,90.98
2023-11-04T06:15:46.729Z,90.99
2023-11-04T06:16:20.409Z,90.91
2023-11-04T06:16:54.100Z,91.02
2023-11-04T06:17:29.172Z,91.27
2023-11-04T06:18:14.325Z,91.46
2023-11-04T06:18:48.379Z,91.70
2023-11-04T06:19:22.729Z,91.64
2023-11-04T06:19:58.746Z,91.64
2023-11-04T06:20:32.748Z,91.55
2023-11-04T06:21:09.512Z,91.14
2023-11-04T06:22:00.164Z,91.22
2023-11-04T06:22:34.491Z,91.79
2023-11-04T06:23:10.938Z,91.89
2023-11-04T06:23:45.531Z,92.04
2023-11-04T06:24:22.143Z,92.51
2023-11-04T06:25:46.113Z,92.84
2023-11-04T06:26:24.223Z,93.02
2023-11-04T06:26:59.756Z,93.27
2023-11-04T06:27:33.749Z,93.48
2023-11-04T06:28:11.224Z,93.57
2023-11-04T06:29:11.968Z,93.58
2023-11-04T06:29:45.458Z,93.73
2023-11-04T06:30:19.020Z,93.83
2023-11-04T06:30:54.538Z,93.94
2023-11-04T06:31:31.526Z,94.03
2023-11-04T06:32:11.726Z,94.01
2023-11-04T06:33:04.967Z,94.00
2023-11-04T06:33:40.268Z,94.17
2023-11-04T06:34:14.231Z,94.43
2023-11-04T06:34:48.180Z,94.45
2023-11-04T06:35:25.060Z,94.60
2023-11-04T06:36:35.552Z,94.32
2023-11-04T06:37:12.202Z,94.20
2023-11-04T06:37:45.987Z,94.52
2023-11-04T06:38:20.923Z,94.58
2023-11-04T06:38:54.996Z,94.41
2023-11-04T06:39:34.444Z,94.50
2023-11-04T06:40:18.291Z,94.45
2023-11-04T06:40:57.665Z,94.63
2023-11-04T06:41:45.207Z,94.82
2023-11-04T06:42:28.381Z,94.98
2023-11-04T06:43:04.449Z,95.23
2023-11-04T06:43:40.472Z,95.23
2023-11-04T06:44:26.153Z,95.32
2023-11-04T06:45:02.515Z,95.51
2023-11-04T06:45:36.769Z,95.66
2023-11-04T06:46:10.909Z,95.73
2023-11-04T06:46:50.522Z,95.74
2023-11-04T06:47:26.048Z,95.63
2023-11-04T06:48:13.353Z,95.57
2023-11-04T06:48:50.003Z,95.46
2023-11-04T06:49:24.899Z,95.29
2023-11-04T06:50:01.660Z,95.24
2023-11-04T06:50:37.749Z,95.16
2023-11-04T06:51:46.322Z,94.52
2023-11-04T06:52:27.825Z,94.25
2023-11-04T06:53:03.186Z,94.18
2023-11-04T06:53:40.617Z,93.93
2023-11-04T06:54:14.681Z,94.19
2023-11-04T06:55:25.811Z,93.70
2023-11-04T06:56:02.011Z,93.91
2023-11-04T06:56:39.656Z,94.24
2023-11-04T06:57:16.948Z,94.29
2023-11-04T06:57:54.390Z,94.57
2023-11-04T06:59:04.038Z,94.37
2023-11-04T06:59:42.077Z,94.52
2023-11-04T07:00:16.961Z,94.49
2023-11-04T07:00:52.090Z,94.81
2023-11-04T07:01:28.016Z,94.56
2023-11-04T07:02:57.608Z,93.72
2023-11-04T07:03:35.105Z,93.89
2023-11-04T07:04:12.173Z,93.97
2023-11-04T07:04:48.248Z,94.01
2023-11-04T07:05:24.474Z,94.04
2023-11-04T07:06:17.103Z,94.15
2023-11-04T07:06:52.599Z,94.43
2023-11-04T07:07:26.943Z,94.50
2023-11-04T07:08:06.565Z,94.36
2023-11-04T07:08:44.354Z,94.53
2023-11-04T07:09:19.643Z,94.58
2023-11-04T07:10:02.157Z,94.51
2023-11-04T07:10:38.978Z,94.31
2023-11-04T07:11:16.428Z,94.59
2023-11-04T07:11:50.540Z,94.80
2023-11-04T07:12:25.138Z,94.99
2023-11-04T07:12:59.206Z,95.04
2023-11-04T07:13:45.051Z,95.20
2023-11-04T07:14:21.258Z,95.38
2023-11-04T07:14:57.744Z,95.49
2023-11-04T07:15:36.522Z,95.45
2023-11-04T07:16:11.452Z,95.73
2023-11-04T07:16:49.947Z,95.45
2023-11-04T07:17:34.532Z,95.30
2023-11-04T07:18:09.811Z,95.33
2023-11-04T07:18:47.741Z,95.69
2023-11-04T07:19:28.124Z,95.78
2023-11-04T07:20:02.186Z,95.82
2023-11-04T07:21:15.469Z,96.02
2023-11-04T07:21:53.592Z,96.15
2023-11-04T07:22:27.768Z,96.60
2023-11-04T07:23:05.110Z,96.86
2023-11-04T07:23:40.135Z,97.10
2023-11-04T07:24:48.985Z,97.36
2023-11-04T07:25:23.990Z,97.41
2023-11-04T07:25:58.464Z,97.25
2023-11-04T07:26:36.775Z,97.10
2023-11-04T07:27:14.509Z,97.12
2023-11-04T07:27:54.261Z,97.10
2023-11-04T07:28:42.599Z,96.93
2023-11-04T07:29:20.057Z,97.22
2023-11-04T07:29:54.243Z,97.24
2023-11-04T07:30:28.042Z,97.23
2023-11-04T07:31:01.919Z,97.53
2023-11-04T07:31:36.891Z,97.36
2023-11-04T07:32:18.673Z,97.54
2023-11-04T07:33:04.802Z,97.69
2023-11-04T07:33:42.120Z,97.61
2023-11-04T07:34:18.832Z,97.66
2023-11-04T07:34:53.910Z,97.40
2023-11-04T07:36:05.308Z,97.48
2023-11-04T07:36:39.571Z,97.58
2023-11-04T07:37:15.687Z,97.83
2023-11-04T07:37:52.107Z,97.54
2023-11-04T07:38:26.988Z,97.50
2023-11-04T07:39:03.951Z,97.92
2023-11-04T07:39:46.033Z,98.12
2023-11-04T07:40:19.957Z,98.25
2023-11-04T07:40:53.901Z,98.56
2023-11-04T07:41:31.061Z,98.44
2023-11-04T07:42:04.862Z,98.62
2023-11-04T07:42:39.085Z,98.89
2023-11-04T07:43:28.566Z,98.70
2023-11-04T07:44:02.802Z,98.98
2023-11-04T07:44:39.929Z,99.10
2023-11-04T07:45:14.407Z,98.62
2023-11-04T07:45:48.360Z,98.38
2023-11-04T07:46:26.369Z,98.41
2023-11-04T07:47:08.136Z,98.75
2023-11-04T07:47:42.590Z,98.44
2023-11-04T07:48:16.621Z,98.03
2023-11-04T07:48:55.339Z,97.74
2023-11-04T07:49:29.716Z,97.47
2023-11-04T07:50:04.271Z,97.01
2023-11-04T07:50:51.506Z,97.07
2023-11-04T07:51:25.275Z,96.99
2023-11-04T07:52:01.225Z,97.30
2023-11-04T07:52:42.868Z,97.77
2023-11-04T07:53:23.914Z,97.85
2023-11-04T07:53:58.313Z,97.88
2023-11-04T07:54:43.880Z,97.35
2023-11-04T07:55:18.352Z,97.04
2023-11-04T07:55:52.651Z,97.40
2023-11-04T07:56:29.041Z,97.84
2023-11-04T07:57:03.911Z,97.29
2023-11-04T07:57:40.452Z,96.38
2023-11-04T07:58:26.299Z,96.00
2023-11-04T07:59:03.229Z,95.79
2023-11-04T07:59:38.354Z,95.75
2023-11-04T08:00:15.524Z,95.70
2023-11-04T08:00:50.775Z,95.38
2023-11-04T08:02:01.960Z,94.35
2023-11-04T08:02:36.860Z,94.43
2023-11-04T08:03:11.019Z,94.80
2023-11-04T08:03:45.018Z,94.43
2023-11-04T08:04:18.744Z,93.45
2023-11-04T08:04:55.170Z,93.08
2023-11-04T08:05:44.254Z,93.50
2023-11-04T08:06:18.794Z,94.17
2023-11-04T08:06:52.767Z,94.37
2023-11-04T08:07:28.269Z,94.38
2023-11-04T08:08:02.257Z,94.81
2023-11-04T08:08:36.079Z,94.65
2023-11-04T08:09:26.565Z,93.69
2023-11-04T08:10:01.276Z,92.92
2023-11-04T08:10:37.074Z,92.77
2023-11-04T08:11:11.150Z,92.45
2023-11-04T08:11:45.196Z,92.83
2023-11-04T08:12:20.923Z,93.18
2023-11-04T08:13:07.809Z,93.82
2023-11-04T08:13:41.837Z,94.11
2023-11-04T08:14:15.716Z,94.12
2023-11-04T08:14:49.670Z,94.41
2023-11-04T08:15:23.697Z,95.26
2023-11-04T08:15:58.202Z,95.30
2023-11-04T08:16:45.562Z,94.58
2023-11-04T08:17:19.447Z,94.11
2023-11-04T08:17:53.372Z,92.50
2023-11-04T08:18:33.064Z,91.70
2023-11-04T08:19:12.528Z,91.68
2023-11-04T08:19:46.414Z,91.28
2023-11-04T08:20:30.611Z,90.76
2023-11-04T08:21:06.207Z,91.12
2023-11-04T08:21:43.511Z,90.38
2023-11-04T08:22:19.434Z,89.51
2023-11-04T08:22:55.716Z,88.82
2023-11-04T08:24:10.118Z,87.42
2023-11-04T08:24:46.298Z,86.76
2023-11-04T08:25:20.262Z,87.57
2023-11-04T08:25:55.222Z,87.79
2023-11-04T08:26:29.145Z,88.10
2023-11-04T08:27:03.933Z,88.31
2023-11-04T08:27:47.474Z,88.63
2023-11-04T08:28:21.168Z,88.40